AZA219 LIML-LSGG
Flight info
| Callsign | AZA219 |
|---|---|
| Flight time | N/A |
| Altitude | 32000 |
| Route | PEPAG1A/35 PEPAG N851 UTAVO DCT ROLSA DCT LADOL T163 EMPAX EMPAX5B |
| Aircraft | MD82/M-SDFGIRWY/S |
Departure
| Time | N/A |
|---|---|
| Airport | Milano Linate Airport (LIML) |
Arrival
| Time | 2026-02-21 22:50 |
|---|---|
| Airport | Geneva International Airport (LSGG) |
| Time | Latitude | Longitude | Altitude | Speed | Heading |
|---|---|---|---|---|---|
| 2026-02-21 22:27 | 46.98388 | 7.52422 | 26837 ft | 390 kts | 291° |
| 2026-02-21 22:27 | 46.99152 | 7.48652 | 26547 ft | 384 kts | 292° |
| 2026-02-21 22:28 | 46.99919 | 7.44920 | 26281 ft | 380 kts | 292° |
| 2026-02-21 22:28 | 47.00636 | 7.41190 | 25612 ft | 381 kts | 284° |
| 2026-02-21 22:28 | 47.00638 | 7.37283 | 24908 ft | 390 kts | 264° |
| 2026-02-21 22:28 | 46.99671 | 7.33535 | 24241 ft | 401 kts | 244° |
| 2026-02-21 22:29 | 46.97890 | 7.30434 | 23504 ft | 411 kts | 225° |
| 2026-02-21 22:29 | 46.95502 | 7.28106 | 22719 ft | 412 kts | 216° |
| 2026-02-21 22:29 | 46.93116 | 7.25858 | 21923 ft | 403 kts | 223° |
| 2026-02-21 22:29 | 46.91157 | 7.23070 | 21189 ft | 387 kts | 237° |
| 2026-02-21 22:30 | 46.89533 | 7.19944 | 20583 ft | 386 kts | 239° |
| 2026-02-21 22:30 | 46.87939 | 7.16808 | 20233 ft | 382 kts | 239° |
| 2026-02-21 22:30 | 46.86331 | 7.13726 | 19737 ft | 380 kts | 238° |
| 2026-02-21 22:30 | 46.84708 | 7.10698 | 19199 ft | 376 kts | 237° |
| 2026-02-21 22:31 | 46.83077 | 7.07730 | 18624 ft | 373 kts | 237° |
| 2026-02-21 22:31 | 46.81440 | 7.04814 | 17978 ft | 370 kts | 236° |
| 2026-02-21 22:31 | 46.79806 | 7.01942 | 17397 ft | 365 kts | 236° |
| 2026-02-21 22:31 | 46.78186 | 6.99116 | 16831 ft | 361 kts | 235° |
| 2026-02-21 22:32 | 46.76584 | 6.96329 | 16292 ft | 356 kts | 235° |
| 2026-02-21 22:32 | 46.75005 | 6.93581 | 15760 ft | 353 kts | 235° |
| 2026-02-21 22:32 | 46.73449 | 6.90866 | 15219 ft | 353 kts | 235° |
| 2026-02-21 22:32 | 46.71875 | 6.88130 | 14688 ft | 350 kts | 234° |
| 2026-02-21 22:33 | 46.70320 | 6.85434 | 14150 ft | 346 kts | 234° |
| 2026-02-21 22:33 | 46.68784 | 6.82766 | 13565 ft | 342 kts | 234° |
| 2026-02-21 22:33 | 46.67269 | 6.80117 | 13018 ft | 339 kts | 234° |
| 2026-02-21 22:33 | 46.65763 | 6.77489 | 12503 ft | 338 kts | 234° |
| 2026-02-21 22:34 | 46.64242 | 6.74883 | 12003 ft | 338 kts | 234° |
| 2026-02-21 22:34 | 46.62724 | 6.72284 | 11504 ft | 337 kts | 234° |
| 2026-02-21 22:34 | 46.61217 | 6.69689 | 11018 ft | 333 kts | 234° |
| 2026-02-21 22:34 | 46.59751 | 6.67156 | 10716 ft | 320 kts | 234° |
| 2026-02-21 22:35 | 46.58355 | 6.64744 | 10580 ft | 304 kts | 234° |
| 2026-02-21 22:35 | 46.57034 | 6.62458 | 10514 ft | 287 kts | 234° |
| 2026-02-21 22:35 | 46.55777 | 6.60275 | 10481 ft | 278 kts | 235° |
| 2026-02-21 22:35 | 46.54534 | 6.58104 | 10383 ft | 283 kts | 235° |
| 2026-02-21 22:36 | 46.53278 | 6.55901 | 10090 ft | 280 kts | 234° |
| 2026-02-21 22:36 | 46.52035 | 6.53725 | 9531 ft | 283 kts | 234° |
| 2026-02-21 22:36 | 46.50793 | 6.51542 | 9032 ft | 284 kts | 233° |
| 2026-02-21 22:36 | 46.49545 | 6.49363 | 8701 ft | 277 kts | 233° |
| 2026-02-21 22:37 | 46.48324 | 6.47252 | 8494 ft | 268 kts | 232° |
| 2026-02-21 22:37 | 46.47143 | 6.45218 | 8330 ft | 259 kts | 232° |
| 2026-02-21 22:37 | 46.45939 | 6.43275 | 8008 ft | 262 kts | 230° |
| 2026-02-21 22:37 | 46.44993 | 6.41053 | 7505 ft | 259 kts | 261° |
| 2026-02-21 22:38 | 46.45170 | 6.38560 | 7250 ft | 247 kts | 297° |
| 2026-02-21 22:38 | 46.46319 | 6.36851 | 7121 ft | 239 kts | 338° |
| 2026-02-21 22:38 | 46.47948 | 6.36691 | 7058 ft | 243 kts | 18° |
| 2026-02-21 22:38 | 46.49362 | 6.38047 | 7024 ft | 248 kts | 41° |
| 2026-02-21 22:39 | 46.50592 | 6.39812 | 6994 ft | 249 kts | 43° |
| 2026-02-21 22:39 | 46.51805 | 6.41617 | 6983 ft | 250 kts | 44° |
| 2026-02-21 22:39 | 46.52998 | 6.43465 | 6983 ft | 252 kts | 45° |
| 2026-02-21 22:39 | 46.54154 | 6.45365 | 6983 ft | 252 kts | 52° |
| 2026-02-21 22:40 | 46.54959 | 6.47635 | 7039 ft | 255 kts | 77° |
| 2026-02-21 22:40 | 46.55011 | 6.50187 | 7104 ft | 255 kts | 99° |
| 2026-02-21 22:40 | 46.54487 | 6.52646 | 7116 ft | 257 kts | 119° |
| 2026-02-21 22:40 | 46.53310 | 6.54566 | 7132 ft | 256 kts | 149° |
| 2026-02-21 22:41 | 46.51655 | 6.55462 | 7139 ft | 255 kts | 176° |
| 2026-02-21 22:41 | 46.49904 | 6.55243 | 7132 ft | 253 kts | 202° |
| 2026-02-21 22:41 | 46.48544 | 6.53756 | 7144 ft | 251 kts | 237° |
| 2026-02-21 22:41 | 46.47668 | 6.51616 | 7425 ft | 237 kts | 243° |
| 2026-02-21 22:42 | 46.46937 | 6.49587 | 7867 ft | 220 kts | 246° |
| 2026-02-21 22:42 | 46.45648 | 6.45346 | 7188 ft | 234 kts | 249° |
| 2026-02-21 22:42 | 46.45027 | 6.43161 | 6887 ft | 228 kts | 245° |
| 2026-02-21 22:43 | 46.44186 | 6.41343 | 6839 ft | 210 kts | 234° |
| 2026-02-21 22:43 | 46.43285 | 6.39725 | 6547 ft | 204 kts | 232° |
| 2026-02-21 22:43 | 46.42326 | 6.38238 | 6250 ft | 200 kts | 229° |
| 2026-02-21 22:43 | 46.41378 | 6.36796 | 5987 ft | 195 kts | 229° |
| 2026-02-21 22:44 | 46.40452 | 6.35423 | 5713 ft | 188 kts | 227° |
| 2026-02-21 22:44 | 46.39545 | 6.34094 | 5479 ft | 180 kts | 228° |
| 2026-02-21 22:44 | 46.38682 | 6.32807 | 5162 ft | 178 kts | 227° |
| 2026-02-21 22:44 | 46.37833 | 6.31548 | 5032 ft | 167 kts | 226° |
| 2026-02-21 22:45 | 46.37031 | 6.30379 | 4823 ft | 160 kts | 225° |
| 2026-02-21 22:45 | 46.36267 | 6.29272 | 4598 ft | 150 kts | 226° |
| 2026-02-21 22:45 | 46.35545 | 6.28199 | 4391 ft | 150 kts | 227° |
| 2026-02-21 22:45 | 46.34817 | 6.27108 | 4230 ft | 149 kts | 227° |
| 2026-02-21 22:46 | 46.34101 | 6.26045 | 4020 ft | 146 kts | 226° |
| 2026-02-21 22:46 | 46.33394 | 6.25000 | 3817 ft | 146 kts | 226° |
| 2026-02-21 22:46 | 46.32682 | 6.23964 | 3642 ft | 144 kts | 226° |
| 2026-02-21 22:46 | 46.31971 | 6.22918 | 3406 ft | 147 kts | 226° |
| 2026-02-21 22:47 | 46.31258 | 6.21854 | 3183 ft | 148 kts | 226° |
| 2026-02-21 22:47 | 46.30545 | 6.20802 | 2983 ft | 146 kts | 226° |
| 2026-02-21 22:47 | 46.29832 | 6.19754 | 2725 ft | 146 kts | 226° |
| 2026-02-21 22:47 | 46.29139 | 6.18736 | 2528 ft | 143 kts | 226° |
| 2026-02-21 22:48 | 46.28447 | 6.17716 | 2333 ft | 141 kts | 226° |
| 2026-02-21 22:48 | 46.27765 | 6.16716 | 2145 ft | 138 kts | 226° |
| 2026-02-21 22:48 | 46.27084 | 6.15717 | 1981 ft | 142 kts | 226° |
| 2026-02-21 22:48 | 46.26396 | 6.14693 | 1823 ft | 142 kts | 226° |
| 2026-02-21 22:49 | 46.25695 | 6.13676 | 1594 ft | 145 kts | 226° |
| 2026-02-21 22:49 | 46.24999 | 6.12645 | 1410 ft | 142 kts | 226° |
| 2026-02-21 22:49 | 46.24342 | 6.11684 | 1373 ft | 125 kts | 225° |
| 2026-02-21 22:49 | 46.23772 | 6.10850 | 1379 ft | 106 kts | 225° |
| 2026-02-21 22:50 | 46.23321 | 6.10186 | 1401 ft | 80 kts | 225° |
| 2026-02-21 22:50 | 46.22999 | 6.09727 | 1413 ft | 31 kts | 206° |
| 2026-02-21 22:50 | 46.22956 | 6.09737 | 1412 ft | 1 kts | 116° |
| 2026-02-21 22:50 | 46.22950 | 6.09767 | 1410 ft | 9 kts | 108° |
| 2026-02-21 22:51 | 46.22922 | 6.09903 | 1404 ft | 0 kts | 94° |
| 2026-02-21 22:52 | 46.22923 | 6.09918 | 1404 ft | 4 kts | 77° |
| 2026-02-21 22:53 | 46.22942 | 6.09958 | 1399 ft | 6 kts | 48° |
| 2026-02-21 22:53 | 46.22973 | 6.10008 | 1403 ft | 7 kts | 47° |
| 2026-02-21 22:53 | 46.23013 | 6.10066 | 1402 ft | 9 kts | 45° |
| 2026-02-21 22:53 | 46.23059 | 6.10132 | 1395 ft | 10 kts | 44° |
| 2026-02-21 22:54 | 46.23111 | 6.10205 | 1402 ft | 11 kts | 46° |
| 2026-02-21 22:54 | 46.23161 | 6.10291 | 1399 ft | 9 kts | 53° |
| 2026-02-21 22:54 | 46.23165 | 6.10338 | 1401 ft | 8 kts | 109° |
| 2026-02-21 22:54 | 46.23126 | 6.10406 | 1403 ft | 9 kts | 136° |
| 2026-02-21 22:55 | 46.23076 | 6.10474 | 1397 ft | 9 kts | 144° |
| 2026-02-21 22:55 | 46.23050 | 6.10476 | 1396 ft | 4 kts | 198° |
| 2026-02-21 22:55 | 46.23027 | 6.10453 | 1402 ft | 5 kts | 219° |
| 2026-02-21 22:55 | 46.23001 | 6.10419 | 1398 ft | 6 kts | 227° |
| 2026-02-21 22:56 | 46.22990 | 6.10410 | 1403 ft | 2 kts | 185° |
| 2026-02-21 22:56 | 46.22962 | 6.10431 | 1397 ft | 5 kts | 136° |
| 2026-02-21 22:56 | 46.22952 | 6.10444 | 1401 ft | 0 kts | 136° |